createdAt,value
2019-06-08T00:01:49.210Z,15.10
2019-06-08T00:04:22.910Z,15.10
2019-06-08T00:06:53.128Z,15.10
2019-06-08T00:09:24.128Z,15.10
2019-06-08T00:11:54.340Z,15.10
2019-06-08T00:14:25.992Z,15.00
2019-06-08T00:16:57.767Z,15.00
2019-06-08T00:19:29.385Z,15.00
2019-06-08T00:21:59.427Z,15.00
2019-06-08T00:24:29.775Z,15.10
2019-06-08T00:26:59.990Z,15.00
2019-06-08T00:29:30.097Z,15.00
2019-06-08T00:32:00.120Z,15.00
2019-06-08T00:34:30.174Z,15.00
2019-06-08T00:37:00.215Z,15.00
2019-06-08T00:39:30.278Z,14.90
2019-06-08T00:42:00.388Z,14.90
2019-06-08T00:44:30.508Z,14.90
2019-06-08T00:47:02.697Z,14.90
2019-06-08T00:49:32.807Z,14.90
2019-06-08T00:52:02.883Z,14.90
2019-06-08T00:54:32.973Z,14.80
2019-06-08T00:57:03.153Z,14.80
2019-06-08T00:59:33.197Z,14.80
2019-06-08T01:02:03.308Z,14.80
2019-06-08T01:04:33.506Z,14.80
2019-06-08T01:07:03.780Z,14.80
2019-06-08T01:09:33.902Z,14.80
2019-06-08T01:12:04.193Z,14.80
2019-06-08T01:14:34.328Z,14.70
2019-06-08T01:17:04.463Z,14.70
2019-06-08T01:19:34.557Z,14.70
2019-06-08T01:22:05.305Z,14.70
2019-06-08T01:24:35.812Z,14.70
2019-06-08T01:27:05.910Z,14.60
2019-06-08T01:29:35.951Z,14.60
2019-06-08T01:32:06.070Z,14.60
2019-06-08T01:34:36.106Z,14.60
2019-06-08T01:37:06.678Z,14.60
2019-06-08T01:39:36.707Z,14.50
2019-06-08T01:42:07.098Z,14.60
2019-06-08T01:44:37.132Z,14.60
2019-06-08T01:47:07.266Z,14.50
2019-06-08T01:49:37.317Z,14.50
2019-06-08T01:52:07.347Z,14.50
2019-06-08T01:54:37.387Z,14.40
2019-06-08T01:57:07.479Z,14.40
2019-06-08T01:59:39.274Z,14.40
2019-06-08T02:02:09.595Z,14.40
2019-06-08T02:04:39.671Z,14.40
2019-06-08T02:07:12.047Z,14.40
2019-06-08T02:09:42.452Z,14.40
2019-06-08T02:12:12.681Z,14.40
2019-06-08T02:14:42.814Z,14.40
2019-06-08T02:17:12.924Z,14.40
2019-06-08T02:19:42.998Z,14.40
2019-06-08T02:22:13.204Z,14.30
2019-06-08T02:24:43.434Z,14.30
2019-06-08T02:27:13.566Z,14.30
2019-06-08T02:29:43.629Z,14.30
2019-06-08T02:32:15.093Z,14.30
2019-06-08T02:34:45.928Z,14.30
2019-06-08T02:37:16.104Z,14.30
2019-06-08T02:39:46.224Z,14.30
2019-06-08T02:42:16.251Z,14.20
2019-06-08T02:44:46.297Z,14.20
2019-06-08T02:47:16.548Z,14.20
2019-06-08T02:49:46.794Z,14.10
2019-06-08T02:52:17.003Z,14.20
2019-06-08T02:54:47.486Z,14.10
2019-06-08T02:57:19.833Z,14.10
2019-06-08T02:59:53.002Z,14.10
2019-06-08T03:02:26.599Z,14.10
2019-06-08T03:04:59.486Z,14.10
2019-06-08T03:07:34.356Z,14.00
2019-06-08T03:10:05.160Z,14.00
2019-06-08T03:12:40.300Z,13.90
2019-06-08T03:15:10.344Z,13.90
2019-06-08T03:17:41.896Z,13.90
2019-06-08T03:20:14.275Z,13.80
2019-06-08T03:22:44.832Z,13.80
2019-06-08T03:25:16.665Z,13.70
2019-06-08T03:27:46.976Z,13.80
2019-06-08T03:30:19.470Z,13.80
2019-06-08T03:32:56.554Z,13.70
2019-06-08T03:35:26.359Z,13.70
2019-06-08T03:37:56.690Z,13.70
2019-06-08T03:40:28.038Z,13.70
2019-06-08T03:42:59.797Z,13.70
2019-06-08T03:45:29.822Z,13.70
2019-06-08T03:47:59.906Z,13.70
2019-06-08T03:50:30.184Z,13.70
2019-06-08T03:53:01.064Z,13.70
2019-06-08T03:55:31.481Z,13.70
2019-06-08T03:58:02.696Z,13.60
2019-06-08T04:00:32.765Z,13.60
2019-06-08T04:03:02.882Z,13.60
2019-06-08T04:05:33.577Z,13.60
2019-06-08T04:08:03.756Z,13.60
2019-06-08T04:10:33.996Z,13.60
2019-06-08T04:13:04.231Z,13.60
2019-06-08T04:15:34.310Z,13.60
2019-06-08T04:18:04.484Z,13.60
2019-06-08T04:20:34.587Z,13.60
2019-06-08T04:23:04.779Z,13.70
2019-06-08T04:25:35.005Z,13.60
2019-06-08T04:28:06.219Z,13.60
2019-06-08T04:30:40.541Z,13.60
2019-06-08T04:33:10.724Z,13.50
2019-06-08T04:35:42.523Z,13.60
2019-06-08T04:38:12.539Z,13.50
2019-06-08T04:40:44.086Z,13.50
2019-06-08T04:43:15.357Z,13.50
2019-06-08T04:45:47.505Z,13.50
2019-06-08T04:48:17.438Z,13.40
2019-06-08T04:50:49.942Z,13.30
2019-06-08T04:53:20.146Z,13.30
2019-06-08T04:55:50.295Z,13.40
2019-06-08T04:58:20.344Z,13.40
2019-06-08T05:00:53.149Z,13.50
2019-06-08T05:03:23.247Z,13.50
2019-06-08T05:05:53.464Z,13.50
2019-06-08T05:08:26.613Z,13.50
2019-06-08T05:10:56.808Z,13.50
2019-06-08T05:13:27.119Z,13.50
2019-06-08T05:15:57.264Z,13.60
2019-06-08T05:18:27.383Z,13.60
2019-06-08T05:20:57.588Z,13.60
2019-06-08T05:23:28.000Z,13.60
2019-06-08T05:25:58.143Z,13.50
2019-06-08T05:28:28.196Z,13.50
2019-06-08T05:31:01.509Z,13.60
2019-06-08T05:33:31.589Z,13.50
2019-06-08T05:36:01.836Z,13.50
2019-06-08T05:38:32.923Z,13.60
2019-06-08T05:41:03.349Z,13.60
2019-06-08T05:43:33.486Z,13.70
2019-06-08T05:46:05.676Z,13.80
2019-06-08T05:48:36.651Z,13.80
2019-06-08T05:51:09.803Z,13.70
2019-06-08T05:53:43.788Z,13.60
2019-06-08T05:56:14.096Z,13.60
2019-06-08T05:58:44.331Z,13.70
2019-06-08T06:01:14.463Z,13.60
2019-06-08T06:03:44.633Z,13.80
2019-06-08T06:06:14.860Z,13.80
2019-06-08T06:08:46.617Z,13.90
2019-06-08T06:11:16.787Z,13.90
2019-06-08T06:13:47.455Z,14.00
2019-06-08T06:16:17.725Z,14.20
2019-06-08T06:18:49.145Z,14.30
2019-06-08T06:21:19.497Z,14.40
2019-06-08T06:23:51.542Z,14.40
2019-06-08T06:26:21.404Z,14.60
2019-06-08T06:28:51.914Z,14.90
2019-06-08T06:31:22.359Z,15.20
2019-06-08T06:33:52.674Z,15.40
2019-06-08T06:36:23.204Z,15.40
2019-06-08T06:38:53.568Z,15.30
2019-06-08T06:41:23.727Z,15.20
2019-06-08T06:43:53.801Z,15.30
2019-06-08T06:46:24.598Z,15.60
2019-06-08T06:48:54.806Z,15.80
2019-06-08T06:51:26.702Z,16.00
2019-06-08T06:53:56.876Z,16.10
2019-06-08T06:56:30.207Z,16.00
2019-06-08T06:59:00.326Z,15.80
2019-06-08T07:01:30.877Z,15.70
2019-06-08T07:04:01.888Z,15.80
2019-06-08T07:06:32.032Z,15.80
2019-06-08T07:09:02.278Z,15.80
2019-06-08T07:11:32.600Z,15.80
2019-06-08T07:14:02.924Z,15.80
2019-06-08T07:16:33.950Z,16.00
2019-06-08T07:19:04.294Z,16.10
2019-06-08T07:21:41.633Z,16.00
2019-06-08T07:24:08.343Z,16.00
2019-06-08T07:26:38.601Z,16.10
2019-06-08T07:29:08.763Z,16.30
2019-06-08T07:31:38.981Z,16.50
2019-06-08T07:34:09.111Z,16.60
2019-06-08T07:36:40.678Z,16.70
2019-06-08T07:39:10.900Z,16.60
2019-06-08T07:41:44.544Z,16.50
2019-06-08T07:44:14.755Z,16.40
2019-06-08T07:46:44.913Z,16.50
2019-06-08T07:49:15.595Z,16.50
2019-06-08T07:51:58.878Z,16.60
2019-06-08T07:54:17.705Z,16.60
2019-06-08T07:56:51.414Z,16.60
2019-06-08T07:59:21.942Z,16.60
2019-06-08T08:01:52.419Z,16.60
2019-06-08T08:04:22.542Z,16.50
2019-06-08T08:06:54.564Z,16.40
2019-06-08T08:09:24.782Z,16.40
2019-06-08T08:11:59.618Z,16.40
2019-06-08T08:14:29.882Z,16.40
2019-06-08T08:17:00.155Z,16.50
2019-06-08T08:19:30.174Z,16.70
2019-06-08T08:22:18.514Z,16.60
2019-06-08T08:24:33.926Z,16.50
2019-06-08T08:27:04.279Z,16.50
2019-06-08T08:29:34.542Z,16.50
2019-06-08T08:32:04.694Z,16.60
2019-06-08T08:34:34.722Z,16.50
2019-06-08T08:37:08.751Z,16.40
2019-06-08T08:39:37.639Z,16.40
2019-06-08T08:42:08.620Z,16.30
2019-06-08T08:44:39.148Z,16.10
2019-06-08T08:47:09.304Z,16.00
2019-06-08T08:49:39.396Z,16.00
2019-06-08T08:52:11.550Z,16.10
2019-06-08T08:54:42.823Z,16.40
2019-06-08T08:57:14.942Z,16.50
2019-06-08T08:59:50.164Z,16.70
2019-06-08T09:02:21.127Z,16.90
2019-06-08T09:04:48.569Z,17.00
2019-06-08T09:07:18.661Z,17.30
2019-06-08T09:09:48.706Z,17.40
2019-06-08T09:12:18.920Z,17.60
2019-06-08T09:14:49.483Z,17.50
2019-06-08T09:17:19.839Z,17.20
2019-06-08T09:19:52.374Z,17.00
2019-06-08T09:22:22.437Z,16.90
2019-06-08T09:24:54.116Z,17.00
2019-06-08T09:27:24.682Z,16.90
2019-06-08T09:29:56.557Z,16.70
2019-06-08T09:32:28.218Z,16.60
2019-06-08T09:35:02.300Z,16.50
2019-06-08T09:37:30.341Z,16.60
2019-06-08T09:40:04.951Z,16.60
2019-06-08T09:42:35.058Z,16.40
2019-06-08T09:45:08.544Z,16.20
2019-06-08T09:47:38.181Z,16.10
2019-06-08T09:50:09.476Z,16.10
2019-06-08T09:52:41.386Z,16.00
2019-06-08T09:55:12.478Z,16.00
2019-06-08T09:57:42.646Z,16.00
2019-06-08T10:00:18.183Z,16.10
2019-06-08T10:02:47.857Z,16.10
2019-06-08T10:05:18.567Z,16.10
2019-06-08T10:07:49.386Z,16.10
2019-06-08T10:10:19.818Z,16.40
2019-06-08T10:12:50.092Z,16.80
2019-06-08T10:15:21.986Z,17.20
2019-06-08T10:17:56.862Z,17.50
2019-06-08T10:20:28.812Z,17.70
2019-06-08T10:23:05.121Z,17.80
2019-06-08T10:25:34.913Z,18.00
2019-06-08T10:28:11.281Z,18.30
2019-06-08T10:30:38.406Z,18.40
2019-06-08T10:33:10.075Z,18.70
2019-06-08T10:35:40.440Z,18.80
2019-06-08T10:38:11.971Z,18.60
2019-06-08T10:41:06.447Z,18.20
2019-06-08T10:43:33.310Z,18.10
2019-06-08T10:46:09.982Z,18.30
2019-06-08T10:48:37.749Z,18.90
2019-06-08T10:51:11.206Z,19.30
2019-06-08T10:53:48.439Z,19.50
2019-06-08T10:56:15.064Z,19.50
2019-06-08T10:58:49.483Z,19.80
2019-06-08T11:01:18.774Z,20.00
2019-06-08T11:03:49.188Z,20.00
2019-06-08T11:06:19.348Z,19.80
2019-06-08T11:08:49.589Z,19.30
2019-06-08T11:11:20.546Z,18.90
2019-06-08T11:13:50.993Z,18.80
2019-06-08T11:16:21.156Z,19.00
2019-06-08T11:18:54.840Z,19.00
2019-06-08T11:21:25.303Z,19.40
2019-06-08T11:24:07.509Z,19.40
2019-06-08T11:26:28.900Z,19.10
2019-06-08T11:29:01.101Z,19.00
2019-06-08T11:31:32.346Z,19.00
2019-06-08T11:34:03.969Z,19.00
2019-06-08T11:36:34.372Z,18.90
2019-06-08T11:39:09.120Z,18.70
2019-06-08T11:41:38.113Z,18.80
2019-06-08T11:44:12.484Z,19.10
2019-06-08T11:46:42.557Z,19.40
2019-06-08T11:49:14.823Z,19.50
2019-06-08T11:51:44.293Z,19.60
2019-06-08T11:54:32.008Z,19.70
2019-06-08T11:56:48.842Z,20.00
2019-06-08T11:59:19.825Z,20.10
2019-06-08T12:01:50.549Z,20.20
2019-06-08T12:04:20.879Z,20.40
2019-06-08T12:06:51.676Z,20.70
2019-06-08T12:09:23.197Z,20.80
2019-06-08T12:11:53.325Z,20.90
2019-06-08T12:14:23.575Z,21.40
2019-06-08T12:16:53.653Z,21.60
2019-06-08T12:19:25.189Z,21.30
2019-06-08T12:21:58.020Z,21.20
2019-06-08T12:24:40.922Z,21.30
2019-06-08T12:27:10.725Z,21.20
2019-06-08T12:29:32.100Z,20.70
2019-06-08T12:32:02.250Z,20.20
2019-06-08T12:34:32.707Z,19.60
2019-06-08T12:37:03.401Z,18.90
2019-06-08T12:39:33.777Z,18.50
2019-06-08T12:42:03.849Z,18.20
2019-06-08T12:44:34.696Z,18.00
2019-06-08T12:47:12.620Z,17.50
2019-06-08T12:49:40.389Z,17.10
2019-06-08T12:52:12.808Z,17.10
2019-06-08T12:54:56.442Z,17.70
2019-06-08T12:57:16.945Z,18.10
2019-06-08T12:59:46.301Z,18.60
2019-06-08T13:02:22.030Z,19.20
2019-06-08T13:04:48.149Z,19.50
2019-06-08T13:07:19.023Z,19.60
2019-06-08T13:09:49.367Z,19.90
2019-06-08T13:12:21.278Z,20.00
2019-06-08T13:14:51.541Z,20.30
2019-06-08T13:17:21.941Z,20.30
2019-06-08T13:19:53.682Z,20.10
2019-06-08T13:22:28.142Z,19.70
2019-06-08T13:24:55.598Z,19.30
2019-06-08T13:27:28.058Z,19.60
2019-06-08T13:30:03.081Z,20.10
2019-06-08T13:32:33.261Z,20.40
2019-06-08T13:35:03.543Z,20.70
2019-06-08T13:37:34.096Z,20.70
2019-06-08T13:40:04.506Z,20.30
2019-06-08T13:42:34.802Z,19.80
2019-06-08T13:45:07.546Z,19.20
2019-06-08T13:47:41.494Z,18.00
2019-06-08T13:50:14.498Z,16.70
2019-06-08T13:52:44.690Z,15.90
2019-06-08T13:55:34.670Z,15.40
2019-06-08T13:57:49.198Z,15.10
2019-06-08T14:00:24.801Z,15.20
2019-06-08T14:02:55.111Z,15.40
2019-06-08T14:05:30.884Z,15.50
2019-06-08T14:08:01.168Z,15.40
2019-06-08T14:10:38.529Z,15.40
2019-06-08T14:13:08.544Z,15.90
2019-06-08T14:15:38.939Z,16.30
2019-06-08T14:18:09.154Z,16.50
2019-06-08T14:20:39.258Z,16.70
2019-06-08T14:23:09.431Z,16.70
2019-06-08T14:25:50.699Z,16.70
2019-06-08T14:28:11.350Z,16.70
2019-06-08T14:30:41.493Z,16.80
2019-06-08T14:33:11.611Z,16.80
2019-06-08T14:35:41.895Z,17.10
2019-06-08T14:38:12.062Z,17.40
2019-06-08T14:40:42.223Z,17.50
2019-06-08T14:43:12.480Z,17.60
2019-06-08T14:45:42.697Z,18.10
2019-06-08T14:48:12.901Z,18.80
2019-06-08T14:50:44.792Z,19.80
2019-06-08T14:53:15.446Z,20.50
2019-06-08T14:55:45.535Z,20.90
2019-06-08T14:58:18.652Z,21.20
2019-06-08T15:00:48.821Z,21.20
2019-06-08T15:03:19.780Z,21.50
2019-06-08T15:05:49.974Z,21.50
2019-06-08T15:08:20.073Z,21.70
2019-06-08T15:10:57.844Z,21.30
2019-06-08T15:13:28.597Z,20.90
2019-06-08T15:16:02.656Z,21.10
2019-06-08T15:18:32.739Z,21.10
2019-06-08T15:21:03.466Z,21.00
2019-06-08T15:23:36.510Z,20.70
2019-06-08T15:26:20.440Z,20.00
2019-06-08T15:28:41.110Z,19.60
2019-06-08T15:31:12.142Z,19.90
2019-06-08T15:33:44.723Z,21.10
2019-06-08T15:36:14.815Z,21.70
2019-06-08T15:38:44.857Z,22.30
2019-06-08T15:41:21.433Z,22.40
2019-06-08T15:43:50.039Z,22.20
2019-06-08T15:46:22.012Z,22.00
2019-06-08T15:48:52.532Z,21.50
2019-06-08T15:51:22.703Z,21.60
2019-06-08T15:53:54.213Z,21.80
2019-06-08T15:56:40.140Z,21.40
2019-06-08T15:58:58.424Z,21.40
2019-06-08T16:01:29.329Z,21.80
2019-06-08T16:03:59.683Z,22.10
2019-06-08T16:06:29.793Z,22.10
2019-06-08T16:08:59.912Z,22.10
2019-06-08T16:11:30.318Z,22.20
2019-06-08T16:14:00.506Z,21.70
2019-06-08T16:16:31.163Z,21.10
2019-06-08T16:19:06.986Z,20.70
2019-06-08T16:21:37.267Z,20.70
2019-06-08T16:24:07.468Z,21.30
2019-06-08T16:26:52.231Z,21.20
2019-06-08T16:29:10.925Z,21.20
2019-06-08T16:31:44.105Z,20.90
2019-06-08T16:34:14.381Z,20.40
2019-06-08T16:36:44.651Z,20.00
2019-06-08T16:39:14.838Z,19.60
2019-06-08T16:41:45.365Z,19.20
2019-06-08T16:44:15.559Z,18.70
2019-06-08T16:46:45.705Z,18.30
2019-06-08T16:49:15.929Z,18.30
2019-06-08T16:51:46.201Z,18.40
2019-06-08T16:54:18.500Z,19.40
2019-06-08T16:56:48.939Z,21.10
2019-06-08T16:59:19.162Z,21.60
2019-06-08T17:01:53.713Z,21.50
2019-06-08T17:04:23.892Z,21.40
2019-06-08T17:06:54.920Z,21.90
2019-06-08T17:09:25.069Z,22.60
2019-06-08T17:11:55.578Z,23.70
2019-06-08T17:14:25.679Z,24.20
2019-06-08T17:16:55.915Z,24.40
2019-06-08T17:19:26.200Z,25.00
2019-06-08T17:21:57.898Z,25.50
2019-06-08T17:24:28.134Z,25.50
2019-06-08T17:26:58.378Z,25.70
2019-06-08T17:29:30.728Z,25.80
2019-06-08T17:32:01.012Z,25.80
2019-06-08T17:34:31.747Z,26.20
2019-06-08T17:37:02.172Z,26.20
2019-06-08T17:39:33.745Z,26.10
2019-06-08T17:42:04.126Z,26.30
2019-06-08T17:44:34.923Z,26.70
2019-06-08T17:47:05.681Z,27.10
2019-06-08T17:49:36.766Z,26.30
2019-06-08T17:52:07.033Z,25.70
2019-06-08T17:54:37.238Z,25.60
2019-06-08T17:57:07.617Z,25.20
2019-06-08T17:59:37.746Z,24.60
2019-06-08T18:02:13.733Z,24.00
2019-06-08T18:04:43.154Z,23.20
2019-06-08T18:07:14.126Z,22.50
2019-06-08T18:09:45.198Z,21.80
2019-06-08T18:12:18.131Z,21.40
2019-06-08T18:14:48.017Z,21.00
2019-06-08T18:17:18.903Z,20.60
2019-06-08T18:19:49.717Z,20.30
2019-06-08T18:22:23.026Z,20.20
2019-06-08T18:24:53.203Z,20.10
2019-06-08T18:27:23.412Z,19.90
2019-06-08T18:29:53.488Z,19.50
2019-06-08T18:32:23.763Z,19.20
2019-06-08T18:34:54.296Z,18.90
2019-06-08T18:37:24.562Z,18.60
2019-06-08T18:39:54.717Z,18.30
2019-06-08T18:42:26.893Z,18.10
2019-06-08T18:44:58.290Z,18.00
2019-06-08T18:47:30.933Z,17.80
2019-06-08T18:50:01.173Z,17.70
2019-06-08T18:52:32.924Z,17.60
2019-06-08T18:55:03.100Z,17.50
2019-06-08T18:57:33.336Z,17.40
2019-06-08T19:00:08.358Z,17.30
2019-06-08T19:02:39.732Z,17.20
2019-06-08T19:05:08.429Z,17.10
2019-06-08T19:07:39.453Z,16.90
2019-06-08T19:10:09.766Z,16.80
2019-06-08T19:12:41.426Z,16.70
2019-06-08T19:15:11.713Z,16.60
2019-06-08T19:17:48.215Z,16.50
2019-06-08T19:20:14.076Z,16.40
2019-06-08T19:22:48.580Z,16.30
2019-06-08T19:25:17.614Z,16.20
2019-06-08T19:27:53.181Z,16.10
2019-06-08T19:30:20.305Z,15.90
2019-06-08T19:32:52.558Z,15.90
2019-06-08T19:35:27.422Z,15.70
2019-06-08T19:37:58.362Z,15.60
2019-06-08T19:40:28.585Z,15.50
2019-06-08T19:43:01.435Z,15.40
2019-06-08T19:45:30.567Z,15.30
2019-06-08T19:48:00.679Z,15.20
2019-06-08T19:50:32.591Z,15.10
2019-06-08T19:53:04.498Z,15.00
2019-06-08T19:55:34.804Z,14.90
2019-06-08T19:58:05.200Z,14.80
2019-06-08T20:00:35.402Z,14.70
2019-06-08T20:03:08.888Z,14.60
2019-06-08T20:05:41.144Z,14.50
2019-06-08T20:08:11.812Z,14.40
2019-06-08T20:10:43.017Z,14.40
2019-06-08T20:13:13.334Z,14.50
2019-06-08T20:15:47.335Z,14.50
2019-06-08T20:18:17.220Z,14.50
2019-06-08T20:20:50.796Z,14.40
2019-06-08T20:23:19.279Z,14.40
2019-06-08T20:25:51.294Z,14.40
2019-06-08T20:28:21.286Z,14.40
2019-06-08T20:30:52.617Z,14.40
2019-06-08T20:33:27.059Z,14.30
2019-06-08T20:35:58.835Z,14.20
2019-06-08T20:38:37.772Z,14.20
2019-06-08T20:41:00.926Z,14.10
2019-06-08T20:43:31.114Z,14.00
2019-06-08T20:46:01.306Z,14.00
2019-06-08T20:48:38.583Z,13.90
2019-06-08T20:51:08.702Z,13.90
2019-06-08T20:53:38.960Z,13.90
2019-06-08T20:56:09.151Z,13.80
2019-06-08T20:58:39.252Z,13.80
2019-06-08T21:01:09.370Z,13.70
2019-06-08T21:03:39.590Z,13.70
2019-06-08T21:06:11.449Z,13.70
2019-06-08T21:08:41.618Z,13.60
2019-06-08T21:11:11.791Z,13.60
2019-06-08T21:13:42.026Z,13.60
2019-06-08T21:16:12.259Z,13.50
2019-06-08T21:18:42.372Z,13.50
2019-06-08T21:21:12.651Z,13.40
2019-06-08T21:23:42.858Z,13.40
2019-06-08T21:26:12.962Z,13.30
2019-06-08T21:28:43.254Z,13.30
2019-06-08T21:31:13.468Z,13.20
2019-06-08T21:33:43.663Z,13.20
2019-06-08T21:36:13.774Z,13.10
2019-06-08T21:38:43.952Z,13.10
2019-06-08T21:41:14.343Z,13.10
2019-06-08T21:43:44.489Z,13.00
2019-06-08T21:46:14.593Z,13.00
2019-06-08T21:48:44.899Z,13.00
2019-06-08T21:51:15.646Z,12.90
2019-06-08T21:53:48.355Z,12.80
2019-06-08T21:56:18.158Z,12.80
2019-06-08T21:58:49.731Z,12.70
2019-06-08T22:01:20.584Z,12.60
2019-06-08T22:03:51.692Z,12.50
2019-06-08T22:06:21.805Z,12.40
2019-06-08T22:08:52.405Z,12.30
2019-06-08T22:11:22.525Z,12.30
2019-06-08T22:13:53.087Z,12.30
2019-06-08T22:16:23.190Z,12.20
2019-06-08T22:18:53.345Z,12.20
2019-06-08T22:21:23.439Z,12.10
2019-06-08T22:23:53.736Z,12.00
2019-06-08T22:26:23.885Z,11.90
2019-06-08T22:28:53.991Z,11.90
2019-06-08T22:31:24.106Z,11.80
2019-06-08T22:33:55.911Z,11.80
2019-06-08T22:36:27.567Z,11.70
2019-06-08T22:39:00.577Z,11.70
2019-06-08T22:41:29.728Z,11.60
2019-06-08T22:44:00.983Z,11.60
2019-06-08T22:46:31.291Z,11.50
2019-06-08T22:49:03.902Z,11.60
2019-06-08T22:51:34.091Z,11.60
2019-06-08T22:54:07.822Z,11.60
2019-06-08T22:56:37.318Z,11.60
2019-06-08T22:59:09.271Z,11.60
2019-06-08T23:01:39.303Z,11.50
2019-06-08T23:04:09.379Z,11.50
2019-06-08T23:06:39.461Z,11.50
2019-06-08T23:09:09.670Z,11.40
2019-06-08T23:11:39.857Z,11.40
2019-06-08T23:14:13.297Z,11.40
2019-06-08T23:16:41.779Z,11.30
2019-06-08T23:19:11.918Z,11.30
2019-06-08T23:21:42.274Z,11.20
2019-06-08T23:24:12.350Z,11.20
2019-06-08T23:26:42.393Z,11.20
2019-06-08T23:29:12.482Z,11.20
2019-06-08T23:31:42.600Z,11.20
2019-06-08T23:34:18.164Z,11.20
2019-06-08T23:36:57.898Z,11.20
2019-06-08T23:39:21.610Z,11.10
2019-06-08T23:41:51.731Z,11.10
2019-06-08T23:44:22.141Z,11.10
2019-06-08T23:46:52.375Z,11.20
2019-06-08T23:49:22.550Z,11.20
2019-06-08T23:51:52.676Z,11.20
2019-06-08T23:54:27.830Z,11.20
2019-06-08T23:56:57.218Z,11.20
2019-06-08T23:59:27.740Z,11.20
